sensor_id;sensor_type;location;lat;lon;timestamp;pressure;altitude;pressure_sealevel;temperature;humidity
25947;BME280;13745;51.470;9.894;2023-05-10T00:00:59;98468.72;;;18.76;51.30
25947;BME280;13745;51.470;9.894;2023-05-10T00:03:44;98466.09;;;18.76;51.39
25947;BME280;13745;51.470;9.894;2023-05-10T00:06:29;98462.84;;;18.72;51.36
25947;BME280;13745;51.470;9.894;2023-05-10T00:09:15;98464.72;;;18.70;51.38
25947;BME280;13745;51.470;9.894;2023-05-10T00:12:00;98460.38;;;18.69;51.42
25947;BME280;13745;51.470;9.894;2023-05-10T00:14:47;98463.94;;;18.68;51.37
25947;BME280;13745;51.470;9.894;2023-05-10T00:17:32;98459.63;;;18.67;51.57
25947;BME280;13745;51.470;9.894;2023-05-10T00:20:17;98463.22;;;18.66;51.57
25947;BME280;13745;51.470;9.894;2023-05-10T00:23:02;98460.75;;;18.63;51.06
25947;BME280;13745;51.470;9.894;2023-05-10T00:25:47;98468.88;;;18.59;51.21
25947;BME280;13745;51.470;9.894;2023-05-10T00:28:33;98463.75;;;18.57;51.50
25947;BME280;13745;51.470;9.894;2023-05-10T00:31:19;98458.50;;;18.57;51.92
25947;BME280;13745;51.470;9.894;2023-05-10T00:34:04;98452.28;;;18.58;51.67
25947;BME280;13745;51.470;9.894;2023-05-10T00:36:49;98451.44;;;18.58;51.59
25947;BME280;13745;51.470;9.894;2023-05-10T00:39:34;98447.16;;;18.57;51.60
25947;BME280;13745;51.470;9.894;2023-05-10T00:42:19;98446.31;;;18.56;51.48
25947;BME280;13745;51.470;9.894;2023-05-10T00:45:06;98445.56;;;18.54;51.46
25947;BME280;13745;51.470;9.894;2023-05-10T00:47:53;98441.31;;;18.51;51.82
25947;BME280;13745;51.470;9.894;2023-05-10T00:50:39;98444.03;;;18.50;52.23
25947;BME280;13745;51.470;9.894;2023-05-10T00:53:25;98442.25;;;18.50;52.52
25947;BME280;13745;51.470;9.894;2023-05-10T00:56:11;98442.16;;;18.52;52.61
25947;BME280;13745;51.470;9.894;2023-05-10T00:58:56;98449.03;;;18.55;52.94
25947;BME280;13745;51.470;9.894;2023-05-10T01:01:42;98437.69;;;18.54;52.77
25947;BME280;13745;51.470;9.894;2023-05-10T01:04:28;98443.84;;;18.53;52.79
25947;BME280;13745;51.470;9.894;2023-05-10T01:07:15;98438.69;;;18.51;52.49
25947;BME280;13745;51.470;9.894;2023-05-10T01:10:01;98434.38;;;18.50;52.51
25947;BME280;13745;51.470;9.894;2023-05-10T01:12:46;98431.03;;;18.48;52.75
25947;BME280;13745;51.470;9.894;2023-05-10T01:15:32;98424.81;;;18.49;52.74
25947;BME280;13745;51.470;9.894;2023-05-10T01:18:20;98429.13;;;18.50;52.91
25947;BME280;13745;51.470;9.894;2023-05-10T01:21:15;98433.44;;;18.51;52.93
25947;BME280;13745;51.470;9.894;2023-05-10T01:24:12;98425.56;;;18.51;52.73
25947;BME280;13745;51.470;9.894;2023-05-10T01:30:44;98434.38;;;18.50;52.61
25947;BME280;13745;51.470;9.894;2023-05-10T01:33:39;98426.72;;;18.47;52.49
25947;BME280;13745;51.470;9.894;2023-05-10T01:36:30;98434.69;;;18.46;52.63
25947;BME280;13745;51.470;9.894;2023-05-10T01:39:20;98433.75;;;18.47;52.44
25947;BME280;13745;51.470;9.894;2023-05-10T01:42:11;98428.41;;;18.48;52.56
25947;BME280;13745;51.470;9.894;2023-05-10T01:44:58;98425.88;;;18.47;52.67
25947;BME280;13745;51.470;9.894;2023-05-10T01:47:48;98432.91;;;18.46;52.67
25947;BME280;13745;51.470;9.894;2023-05-10T01:50:38;98432.13;;;18.44;52.72
25947;BME280;13745;51.470;9.894;2023-05-10T01:53:24;98430.53;;;18.42;52.59
25947;BME280;13745;51.470;9.894;2023-05-10T01:56:12;98428.22;;;18.37;52.89
25947;BME280;13745;51.470;9.894;2023-05-10T01:58:58;98423.88;;;18.36;52.99
25947;BME280;13745;51.470;9.894;2023-05-10T02:01:45;98428.38;;;18.34;53.36
25947;BME280;13745;51.470;9.894;2023-05-10T02:04:32;98427.53;;;18.34;53.64
25947;BME280;13745;51.470;9.894;2023-05-10T02:07:21;98429.22;;;18.35;54.00
25947;BME280;13745;51.470;9.894;2023-05-10T02:10:09;98426.50;;;18.36;54.17
25947;BME280;13745;51.470;9.894;2023-05-10T02:12:58;98433.47;;;18.37;54.49
25947;BME280;13745;51.470;9.894;2023-05-10T02:15:46;98437.66;;;18.40;54.26
25947;BME280;13745;51.470;9.894;2023-05-10T02:18:34;98436.81;;;18.39;54.24
25947;BME280;13745;51.470;9.894;2023-05-10T02:21:21;98445.44;;;18.41;54.07
25947;BME280;13745;51.470;9.894;2023-05-10T02:24:10;98437.78;;;18.38;54.82
25947;BME280;13745;51.470;9.894;2023-05-10T02:26:56;98434.31;;;18.38;54.84
25947;BME280;13745;51.470;9.894;2023-05-10T02:29:42;98438.03;;;18.34;55.24
25947;BME280;13745;51.470;9.894;2023-05-10T02:32:28;98432.13;;;18.30;55.60
25947;BME280;13745;51.470;9.894;2023-05-10T02:35:14;98437.66;;;18.25;55.92
25947;BME280;13745;51.470;9.894;2023-05-10T02:38:01;98435.13;;;18.24;56.25
25947;BME280;13745;51.470;9.894;2023-05-10T02:40:50;98438.94;;;18.18;56.45
25947;BME280;13745;51.470;9.894;2023-05-10T02:43:37;98431.38;;;18.14;56.42
25947;BME280;13745;51.470;9.894;2023-05-10T02:46:25;98454.13;;;18.13;56.72
25947;BME280;13745;51.470;9.894;2023-05-10T02:49:10;98443.81;;;18.10;56.97
25947;BME280;13745;51.470;9.894;2023-05-10T02:52:00;98443.16;;;18.07;57.45
25947;BME280;13745;51.470;9.894;2023-05-10T02:54:49;98446.63;;;18.07;57.83
25947;BME280;13745;51.470;9.894;2023-05-10T02:57:40;98433.59;;;18.06;58.09
25947;BME280;13745;51.470;9.894;2023-05-10T03:00:26;98438.84;;;18.06;58.33
25947;BME280;13745;51.470;9.894;2023-05-10T03:03:11;98441.56;;;18.04;58.51
25947;BME280;13745;51.470;9.894;2023-05-10T03:05:57;98445.19;;;18.02;58.97
25947;BME280;13745;51.470;9.894;2023-05-10T03:08:43;98441.06;;;17.98;59.67
25947;BME280;13745;51.470;9.894;2023-05-10T03:11:39;98442.06;;;17.95;59.78
25947;BME280;13745;51.470;9.894;2023-05-10T03:14:41;98434.59;;;17.89;60.33
25947;BME280;13745;51.470;9.894;2023-05-10T03:17:30;98429.69;;;17.83;60.64
25947;BME280;13745;51.470;9.894;2023-05-10T03:20:24;98430.88;;;17.77;60.98
25947;BME280;13745;51.470;9.894;2023-05-10T03:23:13;98433.78;;;17.73;61.46
25947;BME280;13745;51.470;9.894;2023-05-10T03:26:01;98433.88;;;17.71;61.31
25947;BME280;13745;51.470;9.894;2023-05-10T03:28:49;98440.19;;;17.67;62.12
25947;BME280;13745;51.470;9.894;2023-05-10T03:31:36;98437.66;;;17.65;62.40
25947;BME280;13745;51.470;9.894;2023-05-10T03:34:23;98430.81;;;17.63;62.44
25947;BME280;13745;51.470;9.894;2023-05-10T03:37:09;98430.88;;;17.61;62.74
25947;BME280;13745;51.470;9.894;2023-05-10T03:39:54;98436.22;;;17.60;63.08
25947;BME280;13745;51.470;9.894;2023-05-10T03:42:39;98438.00;;;17.59;63.17
25947;BME280;13745;51.470;9.894;2023-05-10T03:45:24;98431.91;;;17.59;63.31
25947;BME280;13745;51.470;9.894;2023-05-10T03:48:11;98438.28;;;17.55;63.65
25947;BME280;13745;51.470;9.894;2023-05-10T03:50:59;98431.50;;;17.51;63.91
25947;BME280;13745;51.470;9.894;2023-05-10T03:53:43;98439.47;;;17.49;64.38
25947;BME280;13745;51.470;9.894;2023-05-10T03:56:29;98445.53;;;17.50;64.51
25947;BME280;13745;51.470;9.894;2023-05-10T03:59:14;98441.91;;;17.52;64.95
25947;BME280;13745;51.470;9.894;2023-05-10T04:01:59;98446.22;;;17.53;64.86
25947;BME280;13745;51.470;9.894;2023-05-10T04:04:46;98445.31;;;17.54;65.48
25947;BME280;13745;51.470;9.894;2023-05-10T04:07:32;98441.66;;;17.57;65.25
25947;BME280;13745;51.470;9.894;2023-05-10T04:10:17;98438.94;;;17.58;65.40
25947;BME280;13745;51.470;9.894;2023-05-10T04:13:02;98437.91;;;17.61;65.68
25947;BME280;13745;51.470;9.894;2023-05-10T04:15:47;98449.06;;;17.64;66.09
25947;BME280;13745;51.470;9.894;2023-05-10T04:18:32;98451.41;;;17.69;66.13
25947;BME280;13745;51.470;9.894;2023-05-10T04:21:18;98444.28;;;17.73;66.16
25947;BME280;13745;51.470;9.894;2023-05-10T04:24:04;98454.47;;;17.77;66.39
25947;BME280;13745;51.470;9.894;2023-05-10T04:26:49;98454.31;;;17.80;66.43
25947;BME280;13745;51.470;9.894;2023-05-10T04:29:34;98451.75;;;17.79;66.58
25947;BME280;13745;51.470;9.894;2023-05-10T04:32:19;98466.75;;;17.77;66.56
25947;BME280;13745;51.470;9.894;2023-05-10T04:35:05;98472.00;;;17.77;66.79
25947;BME280;13745;51.470;9.894;2023-05-10T04:37:51;98465.16;;;17.74;67.11
25947;BME280;13745;51.470;9.894;2023-05-10T04:40:37;98467.88;;;17.73;67.21
25947;BME280;13745;51.470;9.894;2023-05-10T04:43:22;98476.56;;;17.73;67.16
25947;BME280;13745;51.470;9.894;2023-05-10T04:46:07;98479.19;;;17.73;67.50
25947;BME280;13745;51.470;9.894;2023-05-10T04:48:52;98475.53;;;17.76;67.64
25947;BME280;13745;51.470;9.894;2023-05-10T04:51:37;98479.94;;;17.75;67.93
25947;BME280;13745;51.470;9.894;2023-05-10T04:54:23;98487.63;;;17.78;68.04
25947;BME280;13745;51.470;9.894;2023-05-10T04:57:08;98488.41;;;17.80;68.31
25947;BME280;13745;51.470;9.894;2023-05-10T04:59:53;98497.69;;;17.86;68.43
25947;BME280;13745;51.470;9.894;2023-05-10T05:02:42;98494.06;;;17.88;68.48
25947;BME280;13745;51.470;9.894;2023-05-10T05:05:27;98494.81;;;17.90;68.61
25947;BME280;13745;51.470;9.894;2023-05-10T05:08:12;98506.72;;;17.96;68.92
25947;BME280;13745;51.470;9.894;2023-05-10T05:10:58;98498.66;;;17.99;69.27
25947;BME280;13745;51.470;9.894;2023-05-10T05:13:44;98505.25;;;18.06;69.35
25947;BME280;13745;51.470;9.894;2023-05-10T05:16:30;98508.44;;;18.11;69.16
25947;BME280;13745;51.470;9.894;2023-05-10T05:19:15;98513.53;;;18.14;69.13
25947;BME280;13745;51.470;9.894;2023-05-10T05:22:00;98520.47;;;18.15;69.31
25947;BME280;13745;51.470;9.894;2023-05-10T05:24:45;98519.44;;;18.18;69.46
25947;BME280;13745;51.470;9.894;2023-05-10T05:27:32;98512.41;;;18.18;69.44
25947;BME280;13745;51.470;9.894;2023-05-10T05:30:17;98522.72;;;18.21;69.42
25947;BME280;13745;51.470;9.894;2023-05-10T05:33:02;98526.19;;;18.22;69.50
25947;BME280;13745;51.470;9.894;2023-05-10T05:35:47;98524.31;;;18.24;69.53
25947;BME280;13745;51.470;9.894;2023-05-10T05:38:34;98532.19;;;18.24;69.43
25947;BME280;13745;51.470;9.894;2023-05-10T05:41:19;98531.16;;;18.27;69.44
25947;BME280;13745;51.470;9.894;2023-05-10T05:44:06;98525.91;;;18.27;69.57
25947;BME280;13745;51.470;9.894;2023-05-10T05:46:51;98540.72;;;18.28;69.46
25947;BME280;13745;51.470;9.894;2023-05-10T05:49:37;98538.94;;;18.28;69.55
25947;BME280;13745;51.470;9.894;2023-05-10T05:52:23;98550.28;;;18.29;69.79
25947;BME280;13745;51.470;9.894;2023-05-10T05:55:08;98548.53;;;18.29;69.74
25947;BME280;13745;51.470;9.894;2023-05-10T05:57:53;98549.28;;;18.31;69.98
25947;BME280;13745;51.470;9.894;2023-05-10T06:00:40;98547.59;;;18.30;69.94
25947;BME280;13745;51.470;9.894;2023-05-10T06:03:25;98559.69;;;18.33;70.07
25947;BME280;13745;51.470;9.894;2023-05-10T06:06:10;98563.78;;;18.37;70.01
25947;BME280;13745;51.470;9.894;2023-05-10T06:08:56;98560.25;;;18.38;70.06
25947;BME280;13745;51.470;9.894;2023-05-10T06:11:41;98563.44;;;18.43;70.05
25947;BME280;13745;51.470;9.894;2023-05-10T06:14:27;98572.00;;;18.46;70.26
25947;BME280;13745;51.470;9.894;2023-05-10T06:17:13;98572.00;;;18.46;70.27
25947;BME280;13745;51.470;9.894;2023-05-10T06:19:59;98574.34;;;18.51;70.20
25947;BME280;13745;51.470;9.894;2023-05-10T06:22:44;98583.66;;;18.57;70.07
25947;BME280;13745;51.470;9.894;2023-05-10T06:25:29;98576.53;;;18.59;70.07
25947;BME280;13745;51.470;9.894;2023-05-10T06:28:14;98587.59;;;18.64;70.05
25947;BME280;13745;51.470;9.894;2023-05-10T06:30:59;98586.59;;;18.66;69.96
25947;BME280;13745;51.470;9.894;2023-05-10T06:33:46;98584.72;;;18.68;69.97
25947;BME280;13745;51.470;9.894;2023-05-10T06:36:32;98589.72;;;18.73;69.77
25947;BME280;13745;51.470;9.894;2023-05-10T06:39:17;98593.66;;;18.80;69.77
25947;BME280;13745;51.470;9.894;2023-05-10T06:42:02;98590.59;;;18.88;69.90
25947;BME280;13745;51.470;9.894;2023-05-10T06:44:50;98605.69;;;18.98;69.57
25947;BME280;13745;51.470;9.894;2023-05-10T06:47:35;98598.41;;;19.03;69.63
25947;BME280;13745;51.470;9.894;2023-05-10T06:50:22;98611.34;;;19.06;69.63
25947;BME280;13745;51.470;9.894;2023-05-10T06:53:08;98605.88;;;19.09;69.17
25947;BME280;13745;51.470;9.894;2023-05-10T06:55:53;98613.75;;;19.09;69.13
25947;BME280;13745;51.470;9.894;2023-05-10T06:58:38;98609.66;;;19.05;68.94
25947;BME280;13745;51.470;9.894;2023-05-10T07:01:23;98616.00;;;19.01;68.80
25947;BME280;13745;51.470;9.894;2023-05-10T07:04:09;98618.00;;;18.98;68.78
25947;BME280;13745;51.470;9.894;2023-05-10T07:06:55;98619.94;;;18.94;68.66
25947;BME280;13745;51.470;9.894;2023-05-10T07:09:40;98626.81;;;18.97;68.81
25947;BME280;13745;51.470;9.894;2023-05-10T07:12:26;98624.00;;;19.00;68.75
25947;BME280;13745;51.470;9.894;2023-05-10T07:15:11;98625.50;;;19.04;68.77
25947;BME280;13745;51.470;9.894;2023-05-10T07:17:56;98629.72;;;19.06;68.79
25947;BME280;13745;51.470;9.894;2023-05-10T07:20:41;98630.38;;;19.10;68.63
25947;BME280;13745;51.470;9.894;2023-05-10T07:23:28;98635.47;;;19.13;68.40
25947;BME280;13745;51.470;9.894;2023-05-10T07:26:13;98647.56;;;19.16;68.39
25947;BME280;13745;51.470;9.894;2023-05-10T07:28:58;98645.69;;;19.18;68.61
25947;BME280;13745;51.470;9.894;2023-05-10T07:31:43;98646.34;;;19.21;68.49
25947;BME280;13745;51.470;9.894;2023-05-10T07:34:28;98645.31;;;19.24;68.42
25947;BME280;13745;51.470;9.894;2023-05-10T07:37:15;98652.44;;;19.22;68.25
25947;BME280;13745;51.470;9.894;2023-05-10T07:40:01;98653.47;;;19.19;68.41
25947;BME280;13745;51.470;9.894;2023-05-10T07:42:47;98648.97;;;19.21;68.39
25947;BME280;13745;51.470;9.894;2023-05-10T07:45:33;98645.97;;;19.27;68.40
25947;BME280;13745;51.470;9.894;2023-05-10T07:48:18;98642.59;;;19.40;68.09
25947;BME280;13745;51.470;9.894;2023-05-10T07:51:03;98654.75;;;19.56;67.96
25947;BME280;13745;51.470;9.894;2023-05-10T07:53:48;98663.38;;;19.73;67.92
25947;BME280;13745;51.470;9.894;2023-05-10T07:56:35;98659.03;;;19.86;67.59
25947;BME280;13745;51.470;9.894;2023-05-10T07:59:20;98668.56;;;20.01;67.69
25947;BME280;13745;51.470;9.894;2023-05-10T08:02:05;98673.19;;;20.12;66.88
25947;BME280;13745;51.470;9.894;2023-05-10T08:04:51;98670.97;;;20.18;66.64
25947;BME280;13745;51.470;9.894;2023-05-10T08:07:36;98678.19;;;20.29;67.10
25947;BME280;13745;51.470;9.894;2023-05-10T08:10:22;98671.50;;;20.38;66.56
25947;BME280;13745;51.470;9.894;2023-05-10T08:13:08;98674.50;;;20.46;65.99
25947;BME280;13745;51.470;9.894;2023-05-10T08:15:53;98677.66;;;20.51;65.29
25947;BME280;13745;51.470;9.894;2023-05-10T08:18:39;98684.53;;;20.54;65.37
25947;BME280;13745;51.470;9.894;2023-05-10T08:21:25;98684.03;;;20.61;65.08
25947;BME280;13745;51.470;9.894;2023-05-10T08:24:10;98692.06;;;20.72;64.72
25947;BME280;13745;51.470;9.894;2023-05-10T08:26:55;98691.25;;;20.85;64.79
25947;BME280;13745;51.470;9.894;2023-05-10T08:29:42;98696.56;;;20.97;64.62
25947;BME280;13745;51.470;9.894;2023-05-10T08:32:27;98701.31;;;21.05;64.20
25947;BME280;13745;51.470;9.894;2023-05-10T08:35:12;98705.34;;;21.11;64.26
25947;BME280;13745;51.470;9.894;2023-05-10T08:37:57;98698.91;;;21.15;63.95
25947;BME280;13745;51.470;9.894;2023-05-10T08:40:43;98703.78;;;21.21;63.64
25947;BME280;13745;51.470;9.894;2023-05-10T08:43:29;98701.59;;;21.27;63.56
25947;BME280;13745;51.470;9.894;2023-05-10T08:46:17;98713.97;;;21.25;63.54
25947;BME280;13745;51.470;9.894;2023-05-10T08:49:03;98717.19;;;21.30;63.52
25947;BME280;13745;51.470;9.894;2023-05-10T08:51:51;98716.25;;;21.44;63.28
25947;BME280;13745;51.470;9.894;2023-05-10T08:54:37;98711.41;;;21.64;63.25
25947;BME280;13745;51.470;9.894;2023-05-10T08:57:23;98713.81;;;21.79;62.85
25947;BME280;13745;51.470;9.894;2023-05-10T09:00:09;98712.09;;;22.04;62.08
25947;BME280;13745;51.470;9.894;2023-05-10T09:02:56;98718.56;;;22.36;61.33
25947;BME280;13745;51.470;9.894;2023-05-10T09:05:42;98721.97;;;22.62;60.83
25947;BME280;13745;51.470;9.894;2023-05-10T09:08:28;98728.28;;;22.84;60.12
25947;BME280;13745;51.470;9.894;2023-05-10T09:11:15;98730.94;;;23.08;59.63
25947;BME280;13745;51.470;9.894;2023-05-10T09:14:01;98733.97;;;23.14;59.05
25947;BME280;13745;51.470;9.894;2023-05-10T09:16:46;98729.75;;;23.12;59.10
25947;BME280;13745;51.470;9.894;2023-05-10T09:19:33;98731.19;;;23.05;59.30
25947;BME280;13745;51.470;9.894;2023-05-10T09:22:18;98732.13;;;23.04;58.91
25947;BME280;13745;51.470;9.894;2023-05-10T09:25:07;98730.44;;;23.03;58.77
25947;BME280;13745;51.470;9.894;2023-05-10T09:27:53;98731.19;;;23.05;58.81
25947;BME280;13745;51.470;9.894;2023-05-10T09:30:38;98742.97;;;23.12;58.52
25947;BME280;13745;51.470;9.894;2023-05-10T09:33:24;98743.56;;;23.15;58.52
25947;BME280;13745;51.470;9.894;2023-05-10T09:36:12;98741.06;;;23.14;58.30
25947;BME280;13745;51.470;9.894;2023-05-10T09:38:57;98749.22;;;23.11;57.94
25947;BME280;13745;51.470;9.894;2023-05-10T09:41:42;98753.88;;;23.07;57.89
25947;BME280;13745;51.470;9.894;2023-05-10T09:44:27;98756.19;;;23.01;57.67
25947;BME280;13745;51.470;9.894;2023-05-10T09:47:16;98757.09;;;22.99;57.70
25947;BME280;13745;51.470;9.894;2023-05-10T09:50:02;98760.03;;;23.08;57.64
25947;BME280;13745;51.470;9.894;2023-05-10T09:52:51;98765.53;;;23.05;56.87
25947;BME280;13745;51.470;9.894;2023-05-10T09:55:41;98762.78;;;23.06;57.20
25947;BME280;13745;51.470;9.894;2023-05-10T09:58:28;98773.06;;;23.22;57.34
25947;BME280;13745;51.470;9.894;2023-05-10T10:01:13;98765.59;;;23.51;57.08
25947;BME280;13745;51.470;9.894;2023-05-10T10:04:02;98761.22;;;23.85;56.53
25947;BME280;13745;51.470;9.894;2023-05-10T10:06:58;98765.28;;;24.23;56.37
25947;BME280;13745;51.470;9.894;2023-05-10T10:09:45;98759.63;;;24.50;55.81
25947;BME280;13745;51.470;9.894;2023-05-10T10:12:30;98770.31;;;24.59;54.68
25947;BME280;13745;51.470;9.894;2023-05-10T10:15:16;98770.03;;;24.74;54.62
25947;BME280;13745;51.470;9.894;2023-05-10T10:18:01;98778.63;;;24.98;54.49
25947;BME280;13745;51.470;9.894;2023-05-10T10:20:47;98781.50;;;25.17;54.12
25947;BME280;13745;51.470;9.894;2023-05-10T10:23:32;98774.81;;;25.23;53.47
25947;BME280;13745;51.470;9.894;2023-05-10T10:26:19;98779.41;;;25.21;53.22
25947;BME280;13745;51.470;9.894;2023-05-10T10:29:13;98771.09;;;25.26;53.46
25947;BME280;13745;51.470;9.894;2023-05-10T10:32:07;98764.50;;;25.41;53.52
25947;BME280;13745;51.470;9.894;2023-05-10T10:34:55;98767.25;;;25.39;53.08
25947;BME280;13745;51.470;9.894;2023-05-10T10:37:44;98769.91;;;25.18;53.51
25947;BME280;13745;51.470;9.894;2023-05-10T10:40:31;98773.59;;;24.95;52.50
25947;BME280;13745;51.470;9.894;2023-05-10T10:43:25;98774.66;;;24.60;52.78
25947;BME280;13745;51.470;9.894;2023-05-10T10:46:12;98777.34;;;24.27;52.96
25947;BME280;13745;51.470;9.894;2023-05-10T10:49:08;98787.19;;;23.91;53.41
25947;BME280;13745;51.470;9.894;2023-05-10T10:52:20;98794.19;;;23.57;54.36
25947;BME280;13745;51.470;9.894;2023-05-10T10:55:07;98789.91;;;23.21;55.38
25947;BME280;13745;51.470;9.894;2023-05-10T10:57:55;98800.72;;;22.94;55.95
25947;BME280;13745;51.470;9.894;2023-05-10T11:00:45;98795.69;;;22.78;56.62
25947;BME280;13745;51.470;9.894;2023-05-10T11:03:31;98802.97;;;22.87;57.11
25947;BME280;13745;51.470;9.894;2023-05-10T11:06:28;98798.34;;;23.26;57.63
25947;BME280;13745;51.470;9.894;2023-05-10T11:09:15;98796.06;;;23.68;57.58
25947;BME280;13745;51.470;9.894;2023-05-10T11:12:08;98795.50;;;23.98;56.33
25947;BME280;13745;51.470;9.894;2023-05-10T11:14:56;98799.63;;;24.35;56.69
25947;BME280;13745;51.470;9.894;2023-05-10T11:17:43;98791.81;;;24.88;56.62
25947;BME280;13745;51.470;9.894;2023-05-10T11:20:39;98794.91;;;25.37;55.47
25947;BME280;13745;51.470;9.894;2023-05-10T11:23:29;98791.28;;;25.80;54.40
25947;BME280;13745;51.470;9.894;2023-05-10T11:26:15;98788.69;;;26.20;53.78
25947;BME280;13745;51.470;9.894;2023-05-10T11:29:01;98789.94;;;26.46;53.66
25947;BME280;13745;51.470;9.894;2023-05-10T11:31:49;98785.91;;;26.62;53.06
25947;BME280;13745;51.470;9.894;2023-05-10T11:34:35;98789.41;;;26.62;52.32
25947;BME280;13745;51.470;9.894;2023-05-10T11:37:20;98785.63;;;26.55;52.42
25947;BME280;13745;51.470;9.894;2023-05-10T11:40:07;98780.03;;;26.58;52.69
25947;BME280;13745;51.470;9.894;2023-05-10T11:42:55;98779.94;;;26.79;51.79
25947;BME280;13745;51.470;9.894;2023-05-10T11:45:41;98774.34;;;27.01;51.27
25947;BME280;13745;51.470;9.894;2023-05-10T11:48:26;98779.84;;;27.19;50.59
25947;BME280;13745;51.470;9.894;2023-05-10T11:51:12;98778.16;;;27.28;50.91
25947;BME280;13745;51.470;9.894;2023-05-10T11:53:58;98781.41;;;27.31;50.98
25947;BME280;13745;51.470;9.894;2023-05-10T11:56:43;98784.91;;;27.32;50.64
25947;BME280;13745;51.470;9.894;2023-05-10T11:59:29;98776.63;;;27.35;50.86
25947;BME280;13745;51.470;9.894;2023-05-10T12:02:14;98782.34;;;27.50;50.43
25947;BME280;13745;51.470;9.894;2023-05-10T12:05:00;98783.72;;;27.63;50.32
25947;BME280;13745;51.470;9.894;2023-05-10T12:07:48;98782.34;;;27.69;50.53
25947;BME280;13745;51.470;9.894;2023-05-10T12:10:34;98785.25;;;27.66;50.51
25947;BME280;13745;51.470;9.894;2023-05-10T12:13:20;98784.31;;;27.57;49.99
25947;BME280;13745;51.470;9.894;2023-05-10T12:16:12;98789.50;;;27.49;49.89
25947;BME280;13745;51.470;9.894;2023-05-10T12:18:59;98780.53;;;27.40;50.39
25947;BME280;13745;51.470;9.894;2023-05-10T12:21:44;98792.16;;;27.30;50.44
25947;BME280;13745;51.470;9.894;2023-05-10T12:24:33;98790.34;;;27.11;50.61
25947;BME280;13745;51.470;9.894;2023-05-10T12:27:19;98795.66;;;27.01;50.20
25947;BME280;13745;51.470;9.894;2023-05-10T12:30:05;98802.50;;;26.94;50.38
25947;BME280;13745;51.470;9.894;2023-05-10T12:32:51;98799.97;;;26.93;50.63
25947;BME280;13745;51.470;9.894;2023-05-10T12:35:46;98800.81;;;27.03;50.96
25947;BME280;13745;51.470;9.894;2023-05-10T12:38:33;98803.50;;;27.12;50.84
25947;BME280;13745;51.470;9.894;2023-05-10T12:41:19;98797.94;;;27.15;50.96
25947;BME280;13745;51.470;9.894;2023-05-10T12:44:04;98807.44;;;27.18;50.75
25947;BME280;13745;51.470;9.894;2023-05-10T12:46:50;98807.44;;;27.18;50.90
25947;BME280;13745;51.470;9.894;2023-05-10T12:49:35;98800.44;;;27.27;50.91
25947;BME280;13745;51.470;9.894;2023-05-10T12:52:20;98802.41;;;27.34;51.33
25947;BME280;13745;51.470;9.894;2023-05-10T12:55:05;98804.91;;;27.36;50.74
25947;BME280;13745;51.470;9.894;2023-05-10T12:57:52;98801.28;;;27.37;50.44
25947;BME280;13745;51.470;9.894;2023-05-10T13:00:37;98808.84;;;27.51;50.90
25947;BME280;13745;51.470;9.894;2023-05-10T13:03:23;98805.06;;;27.73;50.60
25947;BME280;13745;51.470;9.894;2023-05-10T13:06:08;98810.75;;;27.97;49.99
25947;BME280;13745;51.470;9.894;2023-05-10T13:08:53;98809.00;;;28.16;49.15
25947;BME280;13745;51.470;9.894;2023-05-10T13:11:38;98813.13;;;28.28;48.55
25947;BME280;13745;51.470;9.894;2023-05-10T13:14:25;98808.78;;;28.27;48.59
25947;BME280;13745;51.470;9.894;2023-05-10T13:17:10;98811.91;;;28.22;48.70
25947;BME280;13745;51.470;9.894;2023-05-10T13:19:55;98817.25;;;28.13;48.56
25947;BME280;13745;51.470;9.894;2023-05-10T13:22:40;98815.94;;;27.99;48.96
25947;BME280;13745;51.470;9.894;2023-05-10T13:25:25;98816.22;;;27.86;48.89
25947;BME280;13745;51.470;9.894;2023-05-10T13:28:11;98814.72;;;27.74;48.74
25947;BME280;13745;51.470;9.894;2023-05-10T13:30:57;98807.69;;;27.63;48.73
25947;BME280;13745;51.470;9.894;2023-05-10T13:33:43;98814.59;;;27.56;48.96
25947;BME280;13745;51.470;9.894;2023-05-10T13:36:29;98814.47;;;27.48;48.90
25947;BME280;13745;51.470;9.894;2023-05-10T13:39:14;98813.47;;;27.39;48.61
25947;BME280;13745;51.470;9.894;2023-05-10T13:41:59;98813.06;;;27.25;49.12
25947;BME280;13745;51.470;9.894;2023-05-10T13:44:44;98822.00;;;27.14;49.56
25947;BME280;13745;51.470;9.894;2023-05-10T13:47:31;98816.94;;;27.01;49.58
25947;BME280;13745;51.470;9.894;2023-05-10T13:50:16;98810.63;;;26.93;49.64
25947;BME280;13745;51.470;9.894;2023-05-10T13:53:02;98811.69;;;26.80;50.27
25947;BME280;13745;51.470;9.894;2023-05-10T13:55:47;98816.69;;;26.64;49.96
25947;BME280;13745;51.470;9.894;2023-05-10T13:58:32;98823.66;;;26.46;50.66
25947;BME280;13745;51.470;9.894;2023-05-10T14:01:17;98827.34;;;26.24;50.52
25947;BME280;13745;51.470;9.894;2023-05-10T14:04:03;98816.88;;;26.01;50.54
25947;BME280;13745;51.470;9.894;2023-05-10T14:06:48;98829.06;;;25.83;50.75
25947;BME280;13745;51.470;9.894;2023-05-10T14:09:34;98839.66;;;25.62;51.19
25947;BME280;13745;51.470;9.894;2023-05-10T14:12:19;98842.69;;;25.37;51.72
25947;BME280;13745;51.470;9.894;2023-05-10T14:15:04;98836.66;;;25.03;52.96
25947;BME280;13745;51.470;9.894;2023-05-10T14:17:50;98829.72;;;24.68;53.79
25947;BME280;13745;51.470;9.894;2023-05-10T14:20:36;98831.31;;;24.37;55.06
25947;BME280;13745;51.470;9.894;2023-05-10T14:23:21;98839.34;;;24.13;55.62
25947;BME280;13745;51.470;9.894;2023-05-10T14:26:08;98835.59;;;23.93;56.66
25947;BME280;13745;51.470;9.894;2023-05-10T14:28:54;98849.28;;;23.76;56.71
25947;BME280;13745;51.470;9.894;2023-05-10T14:31:40;98852.41;;;23.57;57.16
25947;BME280;13745;51.470;9.894;2023-05-10T14:34:25;98848.41;;;23.40;57.59
25947;BME280;13745;51.470;9.894;2023-05-10T14:37:13;98858.22;;;23.27;58.31
25947;BME280;13745;51.470;9.894;2023-05-10T14:39:58;98856.47;;;23.15;58.58
25947;BME280;13745;51.470;9.894;2023-05-10T14:42:43;98851.00;;;23.05;58.92
25947;BME280;13745;51.470;9.894;2023-05-10T14:45:29;98856.72;;;22.99;59.02